createdAt,value
2023-02-22T00:02:11.414Z,6.40
2023-02-22T00:04:42.507Z,6.30
2023-02-22T00:07:09.750Z,6.30
2023-02-22T00:09:37.218Z,6.30
2023-02-22T00:12:04.595Z,6.30
2023-02-22T00:14:31.719Z,6.20
2023-02-22T00:17:02.671Z,6.20
2023-02-22T00:19:31.328Z,6.20
2023-02-22T00:21:59.629Z,6.20
2023-02-22T00:24:26.889Z,6.20
2023-02-22T00:26:58.749Z,6.20
2023-02-22T00:29:26.499Z,6.20
2023-02-22T00:31:54.394Z,6.20
2023-02-22T00:34:23.595Z,6.20
2023-02-22T00:36:51.324Z,6.10
2023-02-22T00:39:18.830Z,6.10
2023-02-22T00:41:46.503Z,6.20
2023-02-22T00:44:13.790Z,6.20
2023-02-22T00:46:40.962Z,6.10
2023-02-22T00:49:08.153Z,6.10
2023-02-22T00:51:35.457Z,6.10
2023-02-22T00:54:02.832Z,6.00
2023-02-22T00:56:30.091Z,5.90
2023-02-22T00:58:57.522Z,5.80
2023-02-22T01:01:24.877Z,5.80
2023-02-22T01:03:52.828Z,5.80
2023-02-22T01:06:20.492Z,5.80
2023-02-22T01:08:48.810Z,5.70
2023-02-22T01:11:17.836Z,5.70
2023-02-22T01:13:47.997Z,5.70
2023-02-22T01:16:15.524Z,5.70
2023-02-22T01:18:42.883Z,5.60
2023-02-22T01:21:10.197Z,5.60
2023-02-22T01:23:37.510Z,5.60
2023-02-22T01:26:06.220Z,5.50
2023-02-22T01:28:34.787Z,5.50
2023-02-22T01:31:03.283Z,5.50
2023-02-22T01:33:31.172Z,5.50
2023-02-22T01:36:00.612Z,5.50
2023-02-22T01:38:27.967Z,5.50
2023-02-22T01:40:55.319Z,5.50
2023-02-22T01:43:24.966Z,5.50
2023-02-22T01:46:07.124Z,5.50
2023-02-22T01:48:56.675Z,5.50
2023-02-22T01:51:38.329Z,5.50
2023-02-22T01:54:20.302Z,5.50
2023-02-22T01:57:03.532Z,5.50
2023-02-22T01:59:37.990Z,5.60
2023-02-22T02:02:05.929Z,5.60
2023-02-22T02:04:34.704Z,5.60
2023-02-22T02:07:07.488Z,5.70
2023-02-22T02:09:58.109Z,5.70
2023-02-22T02:12:26.481Z,5.60
2023-02-22T02:14:54.434Z,5.60
2023-02-22T02:17:23.536Z,5.60
2023-02-22T02:20:18.111Z,5.60
2023-02-22T02:22:48.502Z,5.60
2023-02-22T02:25:46.423Z,5.60
2023-02-22T02:28:43.821Z,5.60
2023-02-22T02:31:44.325Z,5.70
2023-02-22T02:34:30.331Z,5.60
2023-02-22T02:37:17.632Z,5.70
2023-02-22T02:39:57.451Z,5.70
2023-02-22T02:42:35.613Z,5.70
2023-02-22T02:45:17.896Z,5.60
2023-02-22T02:47:56.947Z,5.60
2023-02-22T02:50:31.948Z,5.60
2023-02-22T02:53:02.725Z,5.50
2023-02-22T02:55:31.921Z,5.50
2023-02-22T02:58:00.616Z,5.50
2023-02-22T03:00:39.455Z,5.50
2023-02-22T03:03:28.275Z,5.40
2023-02-22T03:06:45.865Z,5.40
2023-02-22T03:09:34.686Z,5.30
2023-02-22T03:12:17.857Z,5.30
2023-02-22T03:14:51.041Z,5.30
2023-02-22T03:17:30.222Z,5.20
2023-02-22T03:20:39.906Z,5.20
2023-02-22T03:23:54.687Z,5.10
2023-02-22T03:26:27.241Z,5.10
2023-02-22T03:28:56.540Z,5.10
2023-02-22T03:31:29.560Z,5.10
2023-02-22T03:34:14.515Z,5.00
2023-02-22T03:36:52.842Z,5.00
2023-02-22T03:39:20.997Z,5.00
2023-02-22T03:41:51.865Z,4.90
2023-02-22T03:44:24.921Z,4.90
2023-02-22T03:46:57.109Z,4.80
2023-02-22T03:49:30.074Z,4.70
2023-02-22T03:51:58.177Z,4.60
2023-02-22T03:54:25.579Z,4.60
2023-02-22T03:57:11.038Z,4.50
2023-02-22T03:59:38.899Z,4.40
2023-02-22T04:02:06.136Z,4.30
2023-02-22T04:04:33.551Z,4.30
2023-02-22T04:09:45.594Z,4.20
2023-02-22T04:12:13.248Z,4.20
2023-02-22T04:14:41.337Z,4.10
2023-02-22T04:17:08.897Z,4.10
2023-02-22T04:19:36.292Z,4.20
2023-02-22T04:22:05.235Z,4.10
2023-02-22T04:24:32.510Z,4.00
2023-02-22T04:26:59.682Z,3.90
2023-02-22T04:29:27.086Z,4.00
2023-02-22T04:31:54.282Z,4.00
2023-02-22T04:34:23.729Z,4.00
2023-02-22T04:36:51.292Z,4.00
2023-02-22T04:39:21.753Z,3.90
2023-02-22T04:41:49.064Z,3.90
2023-02-22T04:44:16.235Z,3.80
2023-02-22T04:46:43.542Z,3.80
2023-02-22T04:49:10.716Z,3.80
2023-02-22T04:51:37.872Z,3.70
2023-02-22T04:54:05.144Z,3.60
2023-02-22T04:56:32.654Z,3.50
2023-02-22T04:59:00.107Z,3.50
2023-02-22T05:01:34.021Z,3.60
2023-02-22T05:04:03.617Z,3.60
2023-02-22T05:06:31.072Z,3.60
2023-02-22T05:08:59.828Z,3.60
2023-02-22T05:11:27.002Z,3.60
2023-02-22T05:13:54.167Z,3.50
2023-02-22T05:16:21.952Z,3.50
2023-02-22T05:18:49.313Z,3.50
2023-02-22T05:21:16.727Z,3.50
2023-02-22T05:23:44.180Z,3.50
2023-02-22T05:26:11.785Z,3.60
2023-02-22T05:28:39.202Z,3.70
2023-02-22T05:31:07.770Z,3.70
2023-02-22T05:33:35.227Z,3.70
2023-02-22T05:36:02.670Z,3.60
2023-02-22T05:38:30.152Z,3.60
2023-02-22T05:40:57.966Z,3.60
2023-02-22T05:43:25.412Z,3.60
2023-02-22T05:45:52.649Z,3.70
2023-02-22T05:48:22.307Z,3.70
2023-02-22T05:50:50.385Z,3.70
2023-02-22T05:53:17.937Z,3.70
2023-02-22T05:55:46.443Z,3.80
2023-02-22T05:58:14.020Z,3.80
2023-02-22T06:00:41.232Z,3.80
2023-02-22T06:03:10.076Z,3.80
2023-02-22T06:05:38.015Z,3.80
2023-02-22T06:08:06.987Z,3.80
2023-02-22T06:10:34.406Z,3.80
2023-02-22T06:13:02.902Z,3.80
2023-02-22T06:15:31.190Z,3.80
2023-02-22T06:17:59.340Z,3.80
2023-02-22T06:20:28.632Z,3.80
2023-02-22T06:22:57.957Z,3.80
2023-02-22T06:25:28.514Z,3.90
2023-02-22T06:27:55.798Z,3.90
2023-02-22T06:30:25.538Z,4.00
2023-02-22T06:32:54.051Z,4.10
2023-02-22T06:35:22.749Z,4.10
2023-02-22T06:37:49.868Z,4.10
2023-02-22T06:40:17.297Z,4.20
2023-02-22T06:42:44.777Z,4.30
2023-02-22T06:45:12.152Z,4.30
2023-02-22T06:47:42.098Z,4.30
2023-02-22T06:50:26.038Z,4.40
2023-02-22T06:52:55.007Z,4.40
2023-02-22T06:55:25.465Z,4.50
2023-02-22T06:57:53.200Z,4.60
2023-02-22T07:00:22.499Z,4.70
2023-02-22T07:02:49.950Z,4.80
2023-02-22T07:05:19.144Z,4.80
2023-02-22T07:07:47.627Z,4.90
2023-02-22T07:10:26.854Z,5.00
2023-02-22T07:12:54.985Z,5.10
2023-02-22T07:15:24.203Z,5.20
2023-02-22T07:17:52.667Z,5.30
2023-02-22T07:20:21.335Z,5.30
2023-02-22T07:22:52.776Z,5.40
2023-02-22T07:25:21.309Z,5.50
2023-02-22T07:27:49.011Z,5.60
2023-02-22T07:30:30.971Z,5.80
2023-02-22T07:33:01.158Z,5.90
2023-02-22T07:35:39.332Z,6.00
2023-02-22T07:38:11.157Z,6.00
2023-02-22T07:40:39.388Z,6.00
2023-02-22T07:43:24.518Z,6.20
2023-02-22T07:45:53.566Z,6.30
2023-02-22T07:48:24.501Z,6.40
2023-02-22T07:50:54.295Z,6.40
2023-02-22T07:53:31.221Z,6.40
2023-02-22T07:56:00.380Z,6.50
2023-02-22T07:58:31.316Z,6.50
2023-02-22T08:00:59.226Z,6.50
2023-02-22T08:03:27.718Z,6.60
2023-02-22T08:05:57.522Z,6.60
2023-02-22T08:08:25.081Z,6.70
2023-02-22T08:10:53.260Z,6.80
2023-02-22T08:13:22.357Z,7.00
2023-02-22T08:15:52.179Z,7.10
2023-02-22T08:18:20.275Z,7.10
2023-02-22T08:20:49.148Z,7.20
2023-02-22T08:23:17.932Z,7.30
2023-02-22T08:25:45.685Z,7.40
2023-02-22T08:28:16.154Z,7.50
2023-02-22T08:30:44.153Z,7.50
2023-02-22T08:33:14.729Z,7.60
2023-02-22T08:35:42.599Z,7.80
2023-02-22T08:38:21.918Z,7.90
2023-02-22T08:40:50.220Z,7.90
2023-02-22T08:43:19.147Z,7.90
2023-02-22T08:45:47.093Z,7.90
2023-02-22T08:48:15.479Z,8.10
2023-02-22T08:50:44.608Z,8.30
2023-02-22T08:53:13.872Z,8.40
2023-02-22T08:55:42.406Z,8.60
2023-02-22T08:58:10.461Z,8.80
2023-02-22T09:00:39.531Z,8.90
2023-02-22T09:03:10.218Z,9.00
2023-02-22T09:05:37.481Z,9.20
2023-02-22T09:08:05.251Z,9.40
2023-02-22T09:10:34.344Z,9.80
2023-02-22T09:13:02.690Z,10.10
2023-02-22T09:15:31.246Z,10.60
2023-02-22T09:17:59.653Z,11.00
2023-02-22T09:20:28.002Z,11.70
2023-02-22T09:22:55.631Z,11.70
2023-02-22T09:25:23.787Z,11.40
2023-02-22T09:27:53.155Z,11.10
2023-02-22T09:30:32.969Z,10.60
2023-02-22T09:33:06.169Z,10.20
2023-02-22T09:35:36.600Z,10.00
2023-02-22T09:38:06.629Z,9.70
2023-02-22T09:40:41.343Z,9.70
2023-02-22T09:43:33.396Z,9.80
2023-02-22T09:46:42.350Z,9.80
2023-02-22T09:49:32.498Z,9.90
2023-02-22T09:52:12.333Z,9.90
2023-02-22T09:54:47.256Z,10.00
2023-02-22T09:57:18.494Z,10.20
2023-02-22T09:59:58.715Z,10.40
2023-02-22T10:02:35.182Z,10.50
2023-02-22T10:05:27.900Z,10.50
2023-02-22T10:08:00.173Z,10.50
2023-02-22T10:10:34.213Z,10.40
2023-02-22T10:13:28.478Z,10.40
2023-02-22T10:16:11.411Z,10.30
2023-02-22T10:18:55.312Z,10.30
2023-02-22T10:21:45.539Z,10.30
2023-02-22T10:24:42.150Z,10.20
2023-02-22T10:27:22.406Z,10.20
2023-02-22T10:29:59.833Z,10.30
2023-02-22T10:32:35.871Z,10.30
2023-02-22T10:35:14.190Z,10.30
2023-02-22T10:37:41.744Z,10.30
2023-02-22T10:40:17.691Z,10.40
2023-02-22T10:42:45.356Z,10.30
2023-02-22T10:45:27.204Z,10.30
2023-02-22T10:47:59.242Z,10.20
2023-02-22T10:50:30.529Z,10.20
2023-02-22T10:52:58.294Z,10.20
2023-02-22T10:55:25.513Z,10.10
2023-02-22T10:58:05.127Z,10.00
2023-02-22T11:00:40.104Z,9.90
2023-02-22T11:03:18.774Z,9.90
2023-02-22T11:05:46.502Z,9.90
2023-02-22T11:08:22.851Z,9.80
2023-02-22T11:10:56.750Z,9.80
2023-02-22T11:13:39.513Z,9.70
2023-02-22T11:16:33.266Z,9.70
2023-02-22T11:19:15.878Z,9.60
2023-02-22T11:21:43.476Z,9.60
2023-02-22T11:24:13.603Z,9.70
2023-02-22T11:26:46.805Z,9.70
2023-02-22T11:29:21.750Z,9.90
2023-02-22T11:31:50.092Z,10.00
2023-02-22T11:34:39.113Z,10.10
2023-02-22T11:37:29.857Z,10.10
2023-02-22T11:40:12.891Z,10.10
2023-02-22T11:42:40.234Z,10.20
2023-02-22T11:45:21.781Z,10.20
2023-02-22T11:47:55.024Z,10.10
2023-02-22T11:50:57.815Z,10.20
2023-02-22T11:53:33.186Z,10.20
2023-02-22T11:56:37.014Z,10.30
2023-02-22T11:59:36.926Z,10.50
2023-02-22T12:02:35.692Z,10.60
2023-02-22T12:05:19.291Z,10.70
2023-02-22T12:08:00.100Z,10.80
2023-02-22T12:10:48.327Z,10.90
2023-02-22T12:13:33.407Z,11.30
2023-02-22T12:16:03.892Z,11.70
2023-02-22T12:18:39.000Z,12.10
2023-02-22T12:21:18.827Z,12.60
2023-02-22T12:23:46.150Z,13.10
2023-02-22T12:26:43.222Z,13.40
2023-02-22T12:29:18.883Z,13.60
2023-02-22T12:31:54.003Z,13.50
2023-02-22T12:34:27.512Z,13.30
2023-02-22T12:37:18.998Z,13.30
2023-02-22T12:40:17.509Z,13.30
2023-02-22T12:43:00.449Z,13.20
2023-02-22T12:45:52.447Z,13.10
2023-02-22T12:48:26.559Z,13.10
2023-02-22T12:51:09.547Z,13.30
2023-02-22T12:53:43.206Z,13.60
2023-02-22T12:56:20.294Z,13.90
2023-02-22T12:59:03.126Z,14.00
2023-02-22T13:01:38.048Z,14.10
2023-02-22T13:04:19.494Z,13.90
2023-02-22T13:07:09.792Z,13.80
2023-02-22T13:09:46.373Z,13.60
2023-02-22T13:12:14.097Z,13.60
2023-02-22T13:15:04.156Z,13.50
2023-02-22T13:17:40.686Z,13.80
2023-02-22T13:20:42.306Z,14.40
2023-02-22T13:23:30.801Z,14.50
2023-02-22T13:26:13.521Z,14.10
2023-02-22T13:28:51.150Z,13.80
2023-02-22T13:31:36.106Z,13.60
2023-02-22T13:34:07.165Z,13.50
2023-02-22T13:37:00.368Z,13.30
2023-02-22T13:40:06.901Z,13.10
2023-02-22T13:42:56.129Z,13.10
2023-02-22T13:45:44.935Z,13.50
2023-02-22T13:48:51.261Z,14.20
2023-02-22T13:51:33.543Z,15.30
2023-02-22T13:54:09.189Z,16.50
2023-02-22T13:56:36.663Z,17.60
2023-02-22T13:59:05.511Z,18.30
2023-02-22T14:01:46.249Z,19.10
2023-02-22T14:04:30.043Z,18.70
2023-02-22T14:07:25.292Z,18.20
2023-02-22T14:09:56.240Z,18.00
2023-02-22T14:12:35.504Z,17.50
2023-02-22T14:15:26.802Z,17.90
2023-02-22T14:17:58.200Z,18.20
2023-02-22T14:20:37.164Z,18.60
2023-02-22T14:23:24.654Z,19.50
2023-02-22T14:25:52.437Z,19.60
2023-02-22T14:28:41.054Z,19.50
2023-02-22T14:31:17.426Z,19.60
2023-02-22T14:34:06.557Z,19.70
2023-02-22T14:36:51.103Z,19.60
2023-02-22T14:39:51.422Z,19.30
2023-02-22T14:42:35.449Z,19.20
2023-02-22T14:45:14.980Z,19.30
2023-02-22T14:48:04.126Z,19.60
2023-02-22T14:50:40.636Z,19.30
2023-02-22T14:53:13.716Z,19.00
2023-02-22T14:55:46.683Z,19.20
2023-02-22T14:58:19.658Z,19.10
2023-02-22T15:00:49.738Z,18.80
2023-02-22T15:03:37.754Z,18.80
2023-02-22T15:06:06.634Z,18.90
2023-02-22T15:08:34.712Z,18.70
2023-02-22T15:11:03.042Z,18.60
2023-02-22T15:13:35.370Z,18.40
2023-02-22T15:16:08.141Z,17.20
2023-02-22T15:18:42.282Z,15.80
2023-02-22T15:21:19.724Z,14.60
2023-02-22T15:23:54.034Z,14.20
2023-02-22T15:26:49.046Z,14.10
2023-02-22T15:29:38.522Z,13.90
2023-02-22T15:32:34.669Z,13.50
2023-02-22T15:35:16.835Z,13.20
2023-02-22T15:37:48.184Z,12.90
2023-02-22T15:40:21.131Z,12.60
2023-02-22T15:42:54.230Z,12.30
2023-02-22T15:45:25.618Z,11.90
2023-02-22T15:47:59.404Z,11.50
2023-02-22T15:50:35.158Z,11.30
2023-02-22T15:53:21.801Z,10.90
2023-02-22T15:55:55.205Z,10.60
2023-02-22T15:58:28.903Z,10.50
2023-02-22T16:01:01.447Z,10.30
2023-02-22T16:03:45.155Z,10.30
2023-02-22T16:06:24.898Z,10.20
2023-02-22T16:08:55.591Z,10.10
2023-02-22T16:11:35.456Z,10.00
2023-02-22T16:14:09.117Z,9.90
2023-02-22T16:16:41.934Z,9.80
2023-02-22T16:19:28.947Z,9.70
2023-02-22T16:22:05.751Z,9.60
2023-02-22T16:24:36.133Z,9.60
2023-02-22T16:27:25.668Z,9.50
2023-02-22T16:30:24.857Z,9.50
2023-02-22T16:32:57.363Z,9.50
2023-02-22T16:35:29.619Z,9.50
2023-02-22T16:38:01.186Z,9.40
2023-02-22T16:40:32.763Z,9.40
2023-02-22T16:43:02.860Z,9.40
2023-02-22T16:45:30.332Z,9.30
2023-02-22T16:47:59.377Z,9.30
2023-02-22T16:50:26.885Z,9.20
2023-02-22T16:52:55.873Z,9.20
2023-02-22T16:55:25.000Z,9.10
2023-02-22T16:58:01.235Z,9.00
2023-02-22T17:00:32.000Z,9.00
2023-02-22T17:03:04.110Z,8.90
2023-02-22T17:05:36.774Z,8.80
2023-02-22T17:08:04.887Z,8.80
2023-02-22T17:10:32.585Z,8.70
2023-02-22T17:13:12.710Z,8.70
2023-02-22T17:15:47.677Z,8.60
2023-02-22T17:18:25.543Z,8.60
2023-02-22T17:20:55.178Z,8.60
2023-02-22T17:23:23.627Z,8.50
2023-02-22T17:25:54.082Z,8.50
2023-02-22T17:28:23.878Z,8.50
2023-02-22T17:30:52.545Z,8.50
2023-02-22T17:33:22.939Z,8.50
2023-02-22T17:35:50.459Z,8.40
2023-02-22T17:38:20.617Z,8.40
2023-02-22T17:40:48.813Z,8.40
2023-02-22T17:43:17.353Z,8.30
2023-02-22T17:45:44.601Z,8.30
2023-02-22T17:48:12.816Z,8.30
2023-02-22T17:50:43.887Z,8.30
2023-02-22T17:53:11.640Z,8.30
2023-02-22T17:55:41.481Z,8.20
2023-02-22T17:58:15.312Z,8.10
2023-02-22T18:00:48.644Z,8.10
2023-02-22T18:03:21.871Z,8.10
2023-02-22T18:05:51.295Z,8.00
2023-02-22T18:08:19.246Z,8.10
2023-02-22T18:10:47.516Z,8.00
2023-02-22T18:13:18.275Z,8.00
2023-02-22T18:15:46.910Z,8.00
2023-02-22T18:18:15.067Z,7.90
2023-02-22T18:20:47.642Z,7.90
2023-02-22T18:23:17.532Z,7.80
2023-02-22T18:26:09.033Z,7.80
2023-02-22T18:28:37.192Z,7.80
2023-02-22T18:31:15.225Z,7.80
2023-02-22T18:33:48.266Z,7.70
2023-02-22T18:36:23.689Z,7.60
2023-02-22T18:38:53.264Z,7.50
2023-02-22T18:41:25.666Z,7.50
2023-02-22T18:43:55.854Z,7.50
2023-02-22T18:46:24.733Z,7.50
2023-02-22T18:48:56.994Z,7.40
2023-02-22T18:51:25.849Z,7.50
2023-02-22T18:54:00.767Z,7.50
2023-02-22T18:56:34.213Z,7.50
2023-02-22T18:59:03.058Z,7.50
2023-02-22T19:01:35.910Z,7.40
2023-02-22T19:04:03.307Z,7.40
2023-02-22T19:06:30.516Z,7.30
2023-02-22T19:09:01.584Z,7.30
2023-02-22T19:11:29.056Z,7.40
2023-02-22T19:13:58.622Z,7.20
2023-02-22T19:16:27.130Z,7.10
2023-02-22T19:18:58.030Z,7.10
2023-02-22T19:21:27.622Z,7.00
2023-02-22T19:23:54.850Z,6.90
2023-02-22T19:26:26.850Z,6.90
2023-02-22T19:28:56.446Z,6.90
2023-02-22T19:31:33.948Z,6.80
2023-02-22T19:34:04.191Z,6.80
2023-02-22T19:36:32.725Z,6.70
2023-02-22T19:39:02.980Z,6.70
2023-02-22T19:41:31.414Z,6.70
2023-02-22T19:44:00.834Z,6.60
2023-02-22T19:46:28.621Z,6.80
2023-02-22T19:48:56.747Z,6.80
2023-02-22T19:51:29.641Z,6.80
2023-02-22T19:53:59.266Z,6.80
2023-02-22T19:56:27.406Z,6.70
2023-02-22T19:58:57.176Z,6.70
2023-02-22T20:01:33.504Z,6.70
2023-02-22T20:04:04.258Z,6.60
2023-02-22T20:06:40.476Z,6.60
2023-02-22T20:09:09.843Z,6.60
2023-02-22T20:11:37.339Z,6.60
2023-02-22T20:14:07.194Z,6.60
2023-02-22T20:16:35.663Z,6.60
2023-02-22T20:19:03.129Z,6.60
2023-02-22T20:21:32.588Z,6.50
2023-02-22T20:24:02.664Z,6.50
2023-02-22T20:26:32.636Z,6.40
2023-02-22T20:29:01.131Z,6.40
2023-02-22T20:31:29.878Z,6.40
2023-02-22T20:34:00.264Z,6.40
2023-02-22T20:36:29.960Z,6.30
2023-02-22T20:39:00.300Z,6.20
2023-02-22T20:41:35.008Z,6.20
2023-02-22T20:44:03.833Z,6.20
2023-02-22T20:46:32.173Z,6.10
2023-02-22T20:49:01.388Z,6.20
2023-02-22T20:51:29.563Z,6.10
2023-02-22T20:54:01.611Z,6.20
2023-02-22T20:56:31.065Z,6.10
2023-02-22T20:59:01.090Z,6.20
2023-02-22T21:01:29.277Z,6.10
2023-02-22T21:04:03.731Z,6.10
2023-02-22T21:06:31.775Z,6.10
2023-02-22T21:09:01.402Z,6.00
2023-02-22T21:11:31.723Z,6.00
2023-02-22T21:14:00.929Z,6.00
2023-02-22T21:16:35.992Z,5.90
2023-02-22T21:19:05.943Z,5.90
2023-02-22T21:21:34.089Z,5.80
2023-02-22T21:24:01.985Z,5.80
2023-02-22T21:26:32.060Z,5.70
2023-02-22T21:29:06.279Z,5.70
2023-02-22T21:31:34.864Z,5.70
2023-02-22T21:34:02.461Z,5.70
2023-02-22T21:36:30.742Z,5.60
2023-02-22T21:39:18.392Z,5.60
2023-02-22T21:41:51.618Z,5.60
2023-02-22T21:44:20.080Z,5.40
2023-02-22T21:46:50.048Z,5.40
2023-02-22T21:49:17.989Z,5.30
2023-02-22T21:51:45.147Z,5.20
2023-02-22T21:54:13.185Z,5.20
2023-02-22T21:56:42.614Z,5.20
2023-02-22T21:59:24.068Z,5.10
2023-02-22T22:01:56.243Z,5.10
2023-02-22T22:04:27.774Z,5.10
2023-02-22T22:06:59.970Z,5.00
2023-02-22T22:09:33.371Z,5.00
2023-02-22T22:12:05.454Z,4.90
2023-02-22T22:14:33.875Z,4.80
2023-02-22T22:17:01.841Z,4.70
2023-02-22T22:19:31.377Z,4.70
2023-02-22T22:21:58.988Z,4.60
2023-02-22T22:24:29.026Z,4.50
2023-02-22T22:26:56.389Z,4.50
2023-02-22T22:29:26.758Z,4.40
2023-02-22T22:31:54.883Z,4.30
2023-02-22T22:34:24.491Z,4.30
2023-02-22T22:36:51.701Z,4.20
2023-02-22T22:39:21.344Z,4.20
2023-02-22T22:41:51.826Z,4.10
2023-02-22T22:44:22.575Z,4.00
2023-02-22T22:46:53.942Z,4.00
2023-02-22T22:49:25.561Z,4.00
2023-02-22T22:51:53.725Z,3.90
2023-02-22T22:54:21.022Z,3.80
2023-02-22T22:56:48.354Z,3.80
2023-02-22T22:59:15.747Z,3.70
2023-02-22T23:01:45.068Z,3.70
2023-02-22T23:04:16.591Z,3.60
2023-02-22T23:06:52.363Z,3.60
2023-02-22T23:09:25.313Z,3.50
2023-02-22T23:11:58.758Z,3.50
2023-02-22T23:14:31.809Z,3.50
2023-02-22T23:17:03.903Z,3.50
2023-02-22T23:19:36.107Z,3.50
2023-02-22T23:22:05.668Z,3.40
2023-02-22T23:24:36.384Z,3.50
2023-02-22T23:27:07.414Z,3.40
2023-02-22T23:29:39.990Z,3.30
2023-02-22T23:32:08.022Z,3.20
2023-02-22T23:34:36.675Z,3.20
2023-02-22T23:37:04.080Z,3.10
2023-02-22T23:39:31.175Z,3.10
2023-02-22T23:42:03.519Z,3.10
2023-02-22T23:44:31.031Z,3.10
2023-02-22T23:46:59.413Z,3.00
2023-02-22T23:49:36.043Z,3.00
2023-02-22T23:52:05.621Z,3.00
2023-02-22T23:54:36.700Z,3.00
2023-02-22T23:57:04.811Z,3.00
2023-02-22T23:59:33.754Z,2.90
